Orbital elements of FENGYUN 1C DEB
| Launched | 9 May 1999 |
| Flight ended | – |
| Launch site | Taiyuan Space Center, PRC |
| Owner | People's Republic of China |
| NORAD ID | 31878 |
| Date fetched |
Epoch osculation |
Inc. [°] |
Ecc. | RA asc node [hr] |
Arg Peri. [°] |
Mean anom [°] |
Mean motion [rev/day] |
Abs. mag |
| Date fetched |
Epoch osculation |
Inc. [°] |
Ecc. | RA asc node [hr] |
Arg Peri. [°] |
Mean anom [°] |
Mean motion [rev/day] |
Abs. mag |
| 2026 May 03 17:57 | 2026 Apr 30 02:57:14 | 99.4535 | 0.00794 | 4.9920 | 162.3881 | 198.0114 | 14.89570 | – |
| 2026 May 02 17:57 | 2026 Apr 30 02:57:14 | 99.4535 | 0.00794 | 4.9920 | 162.3881 | 198.0114 | 14.89570 | – |
| 2026 May 01 17:56 | 2026 Apr 30 02:57:14 | 99.4535 | 0.00794 | 4.9920 | 162.3881 | 198.0114 | 14.89570 | – |
| 2026 Apr 30 17:56 | 2026 Apr 30 02:57:14 | 99.4535 | 0.00794 | 4.9920 | 162.3881 | 198.0114 | 14.89570 | – |
| 2026 Apr 29 17:57 | 2026 Apr 23 14:34:08 | 99.4508 | 0.00788 | 4.4735 | 183.2023 | 198.0114 | 14.89570 | – |
| 2026 Apr 28 17:56 | 2026 Apr 23 14:34:08 | 99.4508 | 0.00788 | 4.4735 | 183.2023 | 198.0114 | 14.89570 | – |
| 2026 Apr 27 17:58 | 2026 Apr 23 14:34:08 | 99.4508 | 0.00788 | 4.4735 | 183.2023 | 198.0114 | 14.89570 | – |
| 2026 Apr 26 17:58 | 2026 Apr 23 14:34:08 | 99.4508 | 0.00788 | 4.4735 | 183.2023 | 198.0114 | 14.89570 | – |
| 2026 Apr 25 17:58 | 2026 Apr 23 14:34:08 | 99.4508 | 0.00788 | 4.4735 | 183.2023 | 198.0114 | 14.89570 | – |
| 2026 Apr 24 17:59 | 2026 Apr 23 14:34:08 | 99.4508 | 0.00788 | 4.4735 | 183.2023 | 198.0114 | 14.89570 | – |
| 2026 Apr 23 17:57 | 2026 Apr 14 14:31:06 | 99.4501 | 0.00787 | 3.7575 | 212.0270 | 198.0114 | 14.89570 | – |
| 2026 Apr 22 17:57 | 2026 Apr 14 14:31:06 | 99.4501 | 0.00787 | 3.7575 | 212.0270 | 198.0114 | 14.89570 | – |
| 2026 Apr 21 17:57 | 2026 Apr 14 14:31:06 | 99.4501 | 0.00787 | 3.7575 | 212.0270 | 198.0114 | 14.89570 | – |
| 2026 Apr 20 17:57 | 2026 Apr 14 14:31:06 | 99.4501 | 0.00787 | 3.7575 | 212.0270 | 198.0114 | 14.89570 | – |
| 2026 Apr 19 17:58 | 2026 Apr 14 14:31:06 | 99.4501 | 0.00787 | 3.7575 | 212.0270 | 198.0114 | 14.89570 | – |
| 2026 Apr 18 17:56 | 2026 Apr 12 02:51:38 | 99.4490 | 0.00785 | 3.5598 | 219.9319 | 198.0114 | 14.89570 | – |
| 2026 Apr 16 17:57 | 2026 Apr 12 02:51:38 | 99.4490 | 0.00785 | 3.5598 | 219.9319 | 198.0114 | 14.89570 | – |
| 2026 Apr 14 17:57 | 2026 Apr 12 02:51:38 | 99.4490 | 0.00785 | 3.5598 | 219.9319 | 198.0114 | 14.89570 | – |
| 2026 Apr 13 17:57 | 2026 Apr 12 02:51:38 | 99.4490 | 0.00785 | 3.5598 | 219.9319 | 198.0114 | 14.89570 | – |
| 2026 Apr 12 17:57 | 2026 Apr 07 03:32:29 | 99.4509 | 0.00782 | 3.1645 | 235.7265 | 198.0114 | 14.89570 | – |
| 2026 Apr 11 17:57 | 2026 Apr 07 03:32:29 | 99.4509 | 0.00782 | 3.1645 | 235.7265 | 198.0114 | 14.89570 | – |
| 2026 Apr 10 17:58 | 2026 Apr 07 03:32:29 | 99.4509 | 0.00782 | 3.1645 | 235.7265 | 198.0114 | 14.89570 | – |
| 2026 Apr 09 18:01 | 2026 Apr 07 03:32:29 | 99.4509 | 0.00782 | 3.1645 | 235.7265 | 198.0114 | 14.89570 | – |
| 2026 Apr 08 17:57 | 2026 Apr 07 03:32:29 | 99.4509 | 0.00782 | 3.1645 | 235.7265 | 198.0114 | 14.89570 | – |
| 2026 Apr 07 17:57 | 2026 Apr 02 02:36:03 | 99.4501 | 0.00782 | 2.7639 | 251.9471 | 198.0114 | 14.89570 | – |
| 2026 Apr 06 17:57 | 2026 Apr 02 02:36:03 | 99.4501 | 0.00782 | 2.7639 | 251.9471 | 198.0114 | 14.89570 | – |